createdAt,value
2022-09-18T00:01:13.879Z,12.46
2022-09-18T00:03:41.192Z,12.17
2022-09-18T00:06:14.896Z,12.20
2022-09-18T00:08:43.662Z,12.32
2022-09-18T00:11:12.632Z,12.01
2022-09-18T00:13:40.550Z,12.38
2022-09-18T00:16:09.237Z,11.93
2022-09-18T00:18:36.224Z,11.72
2022-09-18T00:21:24.585Z,11.98
2022-09-18T00:23:54.334Z,11.54
2022-09-18T00:26:21.016Z,12.19
2022-09-18T00:28:47.562Z,12.03
2022-09-18T00:31:17.360Z,12.00
2022-09-18T00:33:43.958Z,12.08
2022-09-18T00:36:13.453Z,12.08
2022-09-18T00:38:40.708Z,11.50
2022-09-18T00:41:11.150Z,11.81
2022-09-18T00:43:37.631Z,11.50
2022-09-18T00:46:08.082Z,11.73
2022-09-18T00:48:47.407Z,11.96
2022-09-18T00:51:14.930Z,12.19
2022-09-18T00:53:45.613Z,12.22
2022-09-18T00:56:14.974Z,12.06
2022-09-18T00:58:42.162Z,12.34
2022-09-18T01:01:09.178Z,12.22
2022-09-18T01:03:35.881Z,12.17
2022-09-18T01:06:15.791Z,11.97
2022-09-18T01:09:28.388Z,11.60
2022-09-18T01:12:10.242Z,11.94
2022-09-18T01:14:44.663Z,11.81
2022-09-18T01:17:37.562Z,12.18
2022-09-18T01:20:36.374Z,13.16
2022-09-18T01:23:27.390Z,12.56
2022-09-18T01:26:12.583Z,12.88
2022-09-18T01:28:43.953Z,12.56
2022-09-18T01:31:15.203Z,12.46
2022-09-18T01:33:48.316Z,12.50
2022-09-18T01:36:16.733Z,12.56
2022-09-18T01:38:48.531Z,12.66
2022-09-18T01:41:21.012Z,12.76
2022-09-18T01:43:50.964Z,12.47
2022-09-18T01:46:19.626Z,12.30
2022-09-18T01:49:13.105Z,12.41
2022-09-18T01:52:15.563Z,12.15
2022-09-18T01:54:45.275Z,12.30
2022-09-18T01:57:24.181Z,12.42
2022-09-18T02:00:05.027Z,12.53
2022-09-18T02:02:36.641Z,12.40
2022-09-18T02:05:07.576Z,12.23
2022-09-18T02:07:54.361Z,12.60
2022-09-18T02:10:23.137Z,12.77
2022-09-18T02:12:51.048Z,12.60
2022-09-18T02:15:17.708Z,12.61
2022-09-18T02:17:51.631Z,12.36
2022-09-18T02:20:22.119Z,12.60
2022-09-18T02:22:50.835Z,12.72
2022-09-18T02:25:20.405Z,12.73
2022-09-18T02:27:48.314Z,12.54
2022-09-18T02:30:14.876Z,12.36
2022-09-18T02:32:41.670Z,12.27
2022-09-18T02:35:09.853Z,12.38
2022-09-18T02:37:44.748Z,12.09
2022-09-18T02:40:56.250Z,12.01
2022-09-18T02:43:55.508Z,11.81
2022-09-18T02:46:54.181Z,11.32
2022-09-18T02:49:27.840Z,11.42
2022-09-18T02:52:37.224Z,11.27
2022-09-18T02:55:16.555Z,11.26
2022-09-18T02:58:15.974Z,11.13
2022-09-18T03:00:44.141Z,11.25
2022-09-18T03:03:14.948Z,11.22
2022-09-18T03:05:44.953Z,11.53
2022-09-18T03:08:12.347Z,11.69
2022-09-18T03:10:38.848Z,11.44
2022-09-18T03:13:05.357Z,11.21
2022-09-18T03:15:32.098Z,11.46
2022-09-18T03:17:58.541Z,11.34
2022-09-18T03:20:25.084Z,11.86
2022-09-18T03:22:51.592Z,11.35
2022-09-18T03:25:18.071Z,11.56
2022-09-18T03:27:44.491Z,11.37
2022-09-18T03:30:11.505Z,10.84
2022-09-18T03:32:37.981Z,11.44
2022-09-18T03:35:04.720Z,11.60
2022-09-18T03:37:31.830Z,11.39
2022-09-18T03:39:58.377Z,11.23
2022-09-18T03:42:24.837Z,11.70
2022-09-18T03:44:51.258Z,11.10
2022-09-18T03:47:17.726Z,11.30
2022-09-18T03:49:47.025Z,11.18
2022-09-18T03:52:13.494Z,11.58
2022-09-18T03:54:39.917Z,11.33
2022-09-18T03:57:06.365Z,11.38
2022-09-18T03:59:32.799Z,11.84
2022-09-18T04:01:59.349Z,11.87
2022-09-18T04:04:25.905Z,11.59
2022-09-18T04:06:52.377Z,11.56
2022-09-18T04:09:18.823Z,11.58
2022-09-18T04:11:45.288Z,11.62
2022-09-18T04:14:11.742Z,12.04
2022-09-18T04:16:38.408Z,12.02
2022-09-18T04:19:04.854Z,12.53
2022-09-18T04:21:32.716Z,11.98
2022-09-18T04:23:59.325Z,12.40
2022-09-18T04:26:27.094Z,12.57
2022-09-18T04:28:53.558Z,12.43
2022-09-18T04:31:20.095Z,12.56
2022-09-18T04:33:46.694Z,12.51
2022-09-18T04:36:13.157Z,12.70
2022-09-18T04:38:39.599Z,12.74
2022-09-18T04:41:06.145Z,12.42
2022-09-18T04:43:32.668Z,12.34
2022-09-18T04:45:59.205Z,12.47
2022-09-18T04:48:25.762Z,12.36
2022-09-18T04:50:52.237Z,12.45
2022-09-18T04:53:19.386Z,12.17
2022-09-18T04:55:46.737Z,11.92
2022-09-18T04:58:14.097Z,11.94
2022-09-18T05:00:40.802Z,12.08
2022-09-18T05:03:08.132Z,12.00
2022-09-18T05:05:35.165Z,11.54
2022-09-18T05:08:02.793Z,11.60
2022-09-18T05:10:29.447Z,11.94
2022-09-18T05:12:55.904Z,11.76
2022-09-18T05:15:22.577Z,11.60
2022-09-18T05:17:49.037Z,11.79
2022-09-18T05:20:15.961Z,11.44
2022-09-18T05:22:46.908Z,11.42
2022-09-18T05:25:13.375Z,11.86
2022-09-18T05:27:39.846Z,11.43
2022-09-18T05:30:07.096Z,11.11
2022-09-18T05:32:33.550Z,10.62
2022-09-18T05:34:59.993Z,10.42
2022-09-18T05:37:26.561Z,10.48
2022-09-18T05:39:53.046Z,10.52
2022-09-18T05:42:19.574Z,10.90
2022-09-18T05:44:46.047Z,10.75
2022-09-18T05:47:12.603Z,10.87
2022-09-18T05:49:39.046Z,11.30
2022-09-18T05:52:05.498Z,11.40
2022-09-18T05:54:32.152Z,11.55
2022-09-18T05:56:58.686Z,11.44
2022-09-18T05:59:25.409Z,11.41
2022-09-18T06:01:52.009Z,11.72
2022-09-18T06:04:18.509Z,12.17
2022-09-18T06:06:45.042Z,12.23
2022-09-18T06:09:11.500Z,12.14
2022-09-18T06:11:37.976Z,11.49
2022-09-18T06:14:04.413Z,11.66
2022-09-18T06:16:31.117Z,11.85
2022-09-18T06:18:57.635Z,11.34
2022-09-18T06:21:24.094Z,11.88
2022-09-18T06:23:50.542Z,12.02
2022-09-18T06:26:17.022Z,12.03
2022-09-18T06:28:44.047Z,11.87
2022-09-18T06:31:10.828Z,11.95
2022-09-18T06:33:37.399Z,12.35
2022-09-18T06:36:08.287Z,12.57
2022-09-18T06:38:34.782Z,12.90
2022-09-18T06:41:01.341Z,13.38
2022-09-18T06:43:28.247Z,13.49
2022-09-18T06:45:55.779Z,13.70
2022-09-18T06:48:23.182Z,13.63
2022-09-18T06:50:59.678Z,13.52
2022-09-18T06:53:26.668Z,12.58
2022-09-18T06:55:53.645Z,12.61
2022-09-18T06:58:20.566Z,12.87
2022-09-18T07:00:47.174Z,12.97
2022-09-18T07:03:13.693Z,13.26
2022-09-18T07:05:42.406Z,13.09
2022-09-18T07:08:09.765Z,13.31
2022-09-18T07:10:36.615Z,13.49
2022-09-18T07:13:03.119Z,13.41
2022-09-18T07:15:29.710Z,13.19
2022-09-18T07:17:57.425Z,13.10
2022-09-18T07:20:23.928Z,13.30
2022-09-18T07:22:55.104Z,13.16
2022-09-18T07:25:22.190Z,13.49
2022-09-18T07:27:49.066Z,13.57
2022-09-18T07:30:15.878Z,13.68
2022-09-18T07:32:42.457Z,14.03
2022-09-18T07:35:09.650Z,13.63
2022-09-18T07:37:36.438Z,14.11
2022-09-18T07:40:03.015Z,13.76
2022-09-18T07:42:29.542Z,14.24
2022-09-18T07:44:56.098Z,14.00
2022-09-18T07:47:24.667Z,13.87
2022-09-18T07:49:51.139Z,14.04
2022-09-18T07:52:18.267Z,14.02
2022-09-18T07:54:44.817Z,13.42
2022-09-18T07:57:11.273Z,13.12
2022-09-18T07:59:37.751Z,13.61
2022-09-18T08:02:05.655Z,12.89
2022-09-18T08:04:32.365Z,13.30
2022-09-18T08:07:03.836Z,13.29
2022-09-18T08:09:30.349Z,12.41
2022-09-18T08:11:56.876Z,12.79
2022-09-18T08:14:28.028Z,13.47
2022-09-18T08:16:55.912Z,13.92
2022-09-18T08:19:22.526Z,14.20
2022-09-18T08:21:49.405Z,13.89
2022-09-18T08:24:17.545Z,14.20
2022-09-18T08:26:44.420Z,12.74
2022-09-18T08:29:13.946Z,11.80
2022-09-18T08:31:40.445Z,11.87
2022-09-18T08:34:06.927Z,11.75
2022-09-18T08:36:33.391Z,11.64
2022-09-18T08:39:00.295Z,11.11
2022-09-18T08:41:55.119Z,11.45
2022-09-18T08:44:28.903Z,11.77
2022-09-18T08:47:02.634Z,11.78
2022-09-18T08:49:32.852Z,11.96
2022-09-18T08:52:20.929Z,12.69
2022-09-18T08:54:57.034Z,13.05
2022-09-18T08:57:27.690Z,13.10
2022-09-18T09:00:22.181Z,13.05
2022-09-18T09:03:00.921Z,13.68
2022-09-18T09:05:42.920Z,13.58
2022-09-18T09:08:32.264Z,13.27
2022-09-18T09:11:11.348Z,13.56
2022-09-18T09:13:56.961Z,14.23
2022-09-18T09:16:41.131Z,13.77
2022-09-18T09:19:26.768Z,13.82
2022-09-18T09:22:08.802Z,14.58
2022-09-18T09:25:09.267Z,14.84
2022-09-18T09:27:39.587Z,13.51
2022-09-18T09:30:13.252Z,14.18
2022-09-18T09:32:45.783Z,15.00
2022-09-18T09:35:29.638Z,14.39
2022-09-18T09:37:56.195Z,15.25
2022-09-18T09:40:32.357Z,14.47
2022-09-18T09:43:08.103Z,15.08
2022-09-18T09:45:51.927Z,14.21
2022-09-18T09:48:27.766Z,14.13
2022-09-18T09:51:01.862Z,14.83
2022-09-18T09:53:28.557Z,14.37
2022-09-18T09:56:07.148Z,14.20
2022-09-18T09:58:56.511Z,15.43
2022-09-18T10:01:27.382Z,15.12
2022-09-18T10:04:16.947Z,14.33
2022-09-18T10:07:13.263Z,14.10
2022-09-18T10:09:53.159Z,14.28
2022-09-18T10:12:30.788Z,14.62
2022-09-18T10:15:11.806Z,15.02
2022-09-18T10:17:40.037Z,15.64
2022-09-18T10:20:07.173Z,15.47
2022-09-18T10:22:35.158Z,15.93
2022-09-18T10:25:05.960Z,15.70
2022-09-18T10:27:32.479Z,15.19
2022-09-18T10:30:00.033Z,16.20
2022-09-18T10:32:38.244Z,16.29
2022-09-18T10:35:26.609Z,15.01
2022-09-18T10:37:53.126Z,13.97
2022-09-18T10:40:31.680Z,13.75
2022-09-18T10:42:59.052Z,12.75
2022-09-18T10:45:30.305Z,13.23
2022-09-18T10:48:04.822Z,13.13
2022-09-18T10:50:34.428Z,12.75
2022-09-18T10:53:29.687Z,12.74
2022-09-18T10:56:03.617Z,12.37
2022-09-18T10:58:31.881Z,13.01
2022-09-18T11:01:08.290Z,13.26
2022-09-18T11:03:41.684Z,13.65
2022-09-18T11:06:19.676Z,13.75
2022-09-18T11:08:48.917Z,13.75
2022-09-18T11:11:31.378Z,13.35
2022-09-18T11:14:19.176Z,12.61
2022-09-18T11:16:49.057Z,12.68
2022-09-18T11:19:23.689Z,12.47
2022-09-18T11:21:59.371Z,12.69
2022-09-18T11:24:34.616Z,13.59
2022-09-18T11:27:22.356Z,13.76
2022-09-18T11:29:49.098Z,13.70
2022-09-18T11:32:21.539Z,13.44
2022-09-18T11:34:53.484Z,12.78
2022-09-18T11:37:43.226Z,13.33
2022-09-18T11:40:18.104Z,13.17
2022-09-18T11:42:46.562Z,13.04
2022-09-18T11:45:31.898Z,12.66
2022-09-18T11:48:28.215Z,12.92
2022-09-18T11:50:57.883Z,13.17
2022-09-18T11:53:27.908Z,12.73
2022-09-18T11:56:25.426Z,12.34
2022-09-18T11:58:55.813Z,12.16
2022-09-18T12:01:33.632Z,11.31
2022-09-18T12:04:41.494Z,11.01
2022-09-18T12:10:29.857Z,11.37
2022-09-18T12:13:18.185Z,11.83
2022-09-18T12:15:50.025Z,12.00
2022-09-18T12:18:29.572Z,11.83
2022-09-18T12:20:59.912Z,12.49
2022-09-18T12:23:27.078Z,12.35
2022-09-18T12:26:02.001Z,12.36
2022-09-18T12:28:41.304Z,12.20
2022-09-18T12:31:17.790Z,11.94
2022-09-18T12:34:15.236Z,12.14
2022-09-18T12:37:08.924Z,12.83
2022-09-18T12:40:13.768Z,12.19
2022-09-18T12:43:18.744Z,12.50
2022-09-18T12:45:57.044Z,12.37
2022-09-18T12:49:02.331Z,13.50
2022-09-18T12:51:36.373Z,13.20
2022-09-18T12:54:24.633Z,12.77
2022-09-18T12:57:19.171Z,12.93
2022-09-18T12:59:52.423Z,12.90
2022-09-18T13:02:24.760Z,13.32
2022-09-18T13:05:00.619Z,13.20
2022-09-18T13:07:45.135Z,13.32
2022-09-18T13:10:20.802Z,14.12
2022-09-18T13:13:14.021Z,14.05
2022-09-18T13:15:46.351Z,13.61
2022-09-18T13:18:40.855Z,13.29
2022-09-18T13:21:16.343Z,13.04
2022-09-18T13:23:43.083Z,14.18
2022-09-18T13:26:12.400Z,14.48
2022-09-18T13:28:41.554Z,13.82
2022-09-18T13:31:27.699Z,14.80
2022-09-18T13:34:05.629Z,14.09
2022-09-18T13:36:34.979Z,14.17
2022-09-18T13:39:05.623Z,14.61
2022-09-18T13:41:47.486Z,14.55
2022-09-18T13:44:35.443Z,13.73
2022-09-18T13:47:14.144Z,13.89
2022-09-18T13:49:55.953Z,14.28
2022-09-18T13:52:43.787Z,13.73
2022-09-18T13:55:33.679Z,13.97
2022-09-18T13:58:31.304Z,14.44
2022-09-18T14:01:04.927Z,14.66
2022-09-18T14:03:39.655Z,14.84
2022-09-18T14:06:37.412Z,14.30
2022-09-18T14:09:25.479Z,14.48
2022-09-18T14:11:52.436Z,13.94
2022-09-18T14:14:23.066Z,13.88
2022-09-18T14:16:50.814Z,13.47
2022-09-18T14:19:20.394Z,13.94
2022-09-18T14:21:46.944Z,14.04
2022-09-18T14:24:40.183Z,13.74
2022-09-18T14:27:26.196Z,14.25
2022-09-18T14:30:02.494Z,13.95
2022-09-18T14:32:29.053Z,14.25
2022-09-18T14:35:26.984Z,14.15
2022-09-18T14:37:53.473Z,14.23
2022-09-18T14:40:25.219Z,14.26
2022-09-18T14:42:51.684Z,14.67
2022-09-18T14:45:24.576Z,14.12
2022-09-18T14:47:51.303Z,14.30
2022-09-18T14:50:37.745Z,14.43
2022-09-18T14:53:25.941Z,14.87
2022-09-18T14:55:56.024Z,14.34
2022-09-18T14:58:23.605Z,14.87
2022-09-18T15:00:54.771Z,13.73
2022-09-18T15:03:27.560Z,13.82
2022-09-18T15:05:57.054Z,14.14
2022-09-18T15:08:26.782Z,14.53
2022-09-18T15:10:53.808Z,13.98
2022-09-18T15:13:23.143Z,14.29
2022-09-18T15:16:01.514Z,14.71
2022-09-18T15:18:29.288Z,14.58
2022-09-18T15:20:58.975Z,14.59
2022-09-18T15:23:30.278Z,14.36
2022-09-18T15:26:01.454Z,14.34
2022-09-18T15:28:30.125Z,14.40
2022-09-18T15:31:03.425Z,14.70
2022-09-18T15:33:31.394Z,14.69
2022-09-18T15:35:58.385Z,14.48
2022-09-18T15:38:29.972Z,14.15
2022-09-18T15:40:56.784Z,14.61
2022-09-18T15:43:29.636Z,14.29
2022-09-18T15:46:04.544Z,13.79
2022-09-18T15:48:48.890Z,14.12
2022-09-18T15:51:17.475Z,13.96
2022-09-18T15:54:26.697Z,14.16
2022-09-18T15:56:53.929Z,14.16
2022-09-18T15:59:40.605Z,14.52
2022-09-18T16:02:35.117Z,14.00
2022-09-18T16:05:12.355Z,13.45
2022-09-18T16:07:39.935Z,13.81
2022-09-18T16:10:36.983Z,14.31
2022-09-18T16:13:26.476Z,13.93
2022-09-18T16:16:08.283Z,13.99
2022-09-18T16:18:52.511Z,14.18
2022-09-18T16:21:19.963Z,14.02
2022-09-18T16:23:50.623Z,13.49
2022-09-18T16:26:20.148Z,13.43
2022-09-18T16:29:01.508Z,13.83
2022-09-18T16:31:31.990Z,14.08
2022-09-18T16:34:17.911Z,13.81
2022-09-18T16:36:45.425Z,13.77
2022-09-18T16:39:14.148Z,13.71
2022-09-18T16:41:40.872Z,13.32
2022-09-18T16:44:11.576Z,14.07
2022-09-18T16:46:42.324Z,13.90
2022-09-18T16:49:09.895Z,14.21
2022-09-18T16:51:37.532Z,13.27
2022-09-18T16:54:04.233Z,13.42
2022-09-18T16:56:37.595Z,13.71
2022-09-18T16:59:05.058Z,13.84
2022-09-18T17:01:48.550Z,13.75
2022-09-18T17:04:22.118Z,13.44
2022-09-18T17:06:49.462Z,13.30
2022-09-18T17:09:15.995Z,13.48
2022-09-18T17:11:42.464Z,13.32
2022-09-18T17:14:09.279Z,13.38
2022-09-18T17:16:44.658Z,13.38
2022-09-18T17:19:11.911Z,13.27
2022-09-18T17:21:38.991Z,13.12
2022-09-18T17:24:06.128Z,13.16
2022-09-18T17:26:34.791Z,13.14
2022-09-18T17:29:01.427Z,13.24
2022-09-18T17:31:27.987Z,13.25
2022-09-18T17:33:55.093Z,12.95
2022-09-18T17:36:21.959Z,12.89
2022-09-18T17:38:48.453Z,13.31
2022-09-18T17:41:16.789Z,13.49
2022-09-18T17:43:43.344Z,13.23
2022-09-18T17:46:12.104Z,13.07
2022-09-18T17:48:39.083Z,13.27
2022-09-18T17:51:11.916Z,13.32
2022-09-18T17:53:39.246Z,13.10
2022-09-18T17:56:06.512Z,13.33
2022-09-18T17:58:33.041Z,13.58
2022-09-18T18:00:59.988Z,13.16
2022-09-18T18:03:27.559Z,13.57
2022-09-18T18:05:58.579Z,13.68
2022-09-18T18:08:27.301Z,13.69
2022-09-18T18:10:54.953Z,13.80
2022-09-18T18:13:21.715Z,13.26
2022-09-18T18:15:50.848Z,13.32
2022-09-18T18:18:19.657Z,12.98
2022-09-18T18:20:53.312Z,13.34
2022-09-18T18:23:19.790Z,13.14
2022-09-18T18:25:47.310Z,13.48
2022-09-18T18:28:13.774Z,12.85
2022-09-18T18:30:45.979Z,13.30
2022-09-18T18:33:12.433Z,13.55
2022-09-18T18:35:38.905Z,13.95
2022-09-18T18:38:05.357Z,13.91
2022-09-18T18:40:31.798Z,14.20
2022-09-18T18:42:58.458Z,13.50
2022-09-18T18:45:24.991Z,13.08
2022-09-18T18:47:51.591Z,13.23
2022-09-18T18:50:18.533Z,13.88
2022-09-18T18:52:49.282Z,14.22
2022-09-18T18:55:15.780Z,13.74
2022-09-18T18:57:42.235Z,13.23
2022-09-18T19:00:09.522Z,13.16
2022-09-18T19:02:35.960Z,12.86
2022-09-18T19:05:03.278Z,12.71
2022-09-18T19:07:30.090Z,12.60
2022-09-18T19:09:57.943Z,13.01
2022-09-18T19:12:26.833Z,12.97
2022-09-18T19:14:53.267Z,12.57
2022-09-18T19:17:19.739Z,12.76
2022-09-18T19:19:47.297Z,12.68
2022-09-18T19:22:18.830Z,12.74
2022-09-18T19:24:45.255Z,12.61
2022-09-18T19:27:12.541Z,12.58
2022-09-18T19:29:39.533Z,12.75
2022-09-18T19:32:07.889Z,12.66
2022-09-18T19:34:34.547Z,12.37
2022-09-18T19:37:01.035Z,12.59
2022-09-18T19:39:27.503Z,12.63
2022-09-18T19:41:59.274Z,12.49
2022-09-18T19:44:25.826Z,12.55
2022-09-18T19:46:53.922Z,12.69
2022-09-18T19:49:22.675Z,12.81
2022-09-18T19:51:49.296Z,13.38
2022-09-18T19:54:15.769Z,13.45
2022-09-18T19:56:47.625Z,13.81
2022-09-18T19:59:16.562Z,13.37
2022-09-18T20:01:43.613Z,13.30
2022-09-18T20:04:10.173Z,12.58
2022-09-18T20:06:40.596Z,13.23
2022-09-18T20:09:07.388Z,13.35
2022-09-18T20:11:33.929Z,13.45
2022-09-18T20:14:00.684Z,12.87
2022-09-18T20:16:27.221Z,12.94
2022-09-18T20:18:54.702Z,12.82
2022-09-18T20:21:21.576Z,12.73
2022-09-18T20:23:48.425Z,12.58
2022-09-18T20:26:17.585Z,12.72
2022-09-18T20:28:44.973Z,12.81
2022-09-18T20:31:13.561Z,12.60
2022-09-18T20:33:40.658Z,12.60
2022-09-18T20:36:09.070Z,12.32
2022-09-18T20:38:38.423Z,12.48
2022-09-18T20:41:07.248Z,12.55
2022-09-18T20:43:35.820Z,12.61
2022-09-18T20:46:05.310Z,12.79
2022-09-18T20:48:37.303Z,12.72
2022-09-18T20:51:07.994Z,12.32
2022-09-18T20:53:38.272Z,12.36
2022-09-18T20:56:09.123Z,12.26
2022-09-18T20:58:36.231Z,12.73
2022-09-18T21:01:13.370Z,12.56
2022-09-18T21:03:42.291Z,12.85
2022-09-18T21:06:22.284Z,12.79
2022-09-18T21:08:50.475Z,12.74
2022-09-18T21:11:19.017Z,12.34
2022-09-18T21:13:49.112Z,12.52
2022-09-18T21:16:20.944Z,12.48
2022-09-18T21:18:48.989Z,12.43
2022-09-18T21:21:17.099Z,12.52
2022-09-18T21:24:01.452Z,12.50
2022-09-18T21:26:43.050Z,12.24
2022-09-18T21:29:21.737Z,12.44
2022-09-18T21:31:51.763Z,12.34
2022-09-18T21:34:24.350Z,12.55
2022-09-18T21:36:52.087Z,12.71
2022-09-18T21:39:19.052Z,12.02
2022-09-18T21:41:48.506Z,12.11
2022-09-18T21:44:17.306Z,12.33
2022-09-18T21:46:45.696Z,12.17
2022-09-18T21:49:13.079Z,12.10
2022-09-18T21:51:42.549Z,11.90
2022-09-18T21:54:18.623Z,12.07
2022-09-18T21:56:48.974Z,11.75
2022-09-18T21:59:15.710Z,11.74
2022-09-18T22:01:43.601Z,11.67
2022-09-18T22:04:11.219Z,11.84
2022-09-18T22:06:43.893Z,11.56
2022-09-18T22:09:39.913Z,11.65
2022-09-18T22:12:07.585Z,11.76
2022-09-18T22:14:35.405Z,11.66
2022-09-18T22:17:04.433Z,11.60
2022-09-18T22:19:33.199Z,11.68
2022-09-18T22:21:59.857Z,11.54
2022-09-18T22:24:27.750Z,11.42
2022-09-18T22:26:56.991Z,11.15
2022-09-18T22:29:31.204Z,11.26
2022-09-18T22:31:59.508Z,11.26
2022-09-18T22:34:28.717Z,11.08
2022-09-18T22:36:55.642Z,10.98
2022-09-18T22:39:22.817Z,11.11
2022-09-18T22:41:51.455Z,11.15
2022-09-18T22:44:20.557Z,11.24
2022-09-18T22:46:47.265Z,11.23
2022-09-18T22:49:15.335Z,11.16
2022-09-18T22:51:42.143Z,10.94
2022-09-18T22:54:08.688Z,10.98
2022-09-18T22:56:54.029Z,10.99
2022-09-18T22:59:22.450Z,11.06
2022-09-18T23:01:52.889Z,11.10
2022-09-18T23:04:21.456Z,11.18
2022-09-18T23:06:48.293Z,11.19
2022-09-18T23:09:16.084Z,11.04
2022-09-18T23:11:44.067Z,11.08
2022-09-18T23:14:20.500Z,11.16
2022-09-18T23:16:48.964Z,10.81
2022-09-18T23:19:30.130Z,11.04
2022-09-18T23:21:56.913Z,11.21
2022-09-18T23:24:23.852Z,10.95
2022-09-18T23:26:52.130Z,10.83
2022-09-18T23:29:21.067Z,10.98
2022-09-18T23:31:57.461Z,10.91
2022-09-18T23:34:28.504Z,11.05
2022-09-18T23:36:56.173Z,11.12
2022-09-18T23:39:25.377Z,10.92
2022-09-18T23:41:52.394Z,10.99
2022-09-18T23:44:20.755Z,11.01
2022-09-18T23:46:48.297Z,10.97
2022-09-18T23:49:16.033Z,11.08
2022-09-18T23:51:46.336Z,10.91
2022-09-18T23:54:20.135Z,10.90
2022-09-18T23:56:47.217Z,10.99
2022-09-18T23:59:15.175Z,10.98
